Time;durP1;ratioP1;P1;durP2;ratioP2;P2;SDS_P1;SDS_P2;PMS_P1;PMS_P2;Temp;Humidity;BMP_temperature;BMP_pressure;BME280_temperature;BME280_humidity;BME280_pressure;Samples;Min_cycle;Max_cycle;Signal;HPM_P1;HPM_P2
2022/01/09 00:00:26;;;;;;;5.00;3.15;;;;;;;2.39;75.44;94822.47;4962710;28;20055;-86
2022/01/09 00:03:16;;;;;;;5.53;3.47;;;;;;;2.40;74.98;94817.13;4962260;28;20058;-89
2022/01/09 00:06:08;;;;;;;5.40;3.83;;;;;;;2.42;75.49;94811.81;4960782;28;20158;-91
2022/01/09 00:08:47;;;;;;;6.00;3.92;;;;;;;2.37;75.46;94796.91;4940662;29;20142;-84
2022/01/09 00:11:34;;;;;;;4.05;3.40;;;;;;;2.37;75.74;94789.19;4941519;29;20054;-86
2022/01/09 00:14:17;;;;;;;4.95;3.70;;;;;;;2.37;75.83;94786.59;4942345;29;20059;-87
2022/01/09 00:16:49;;;;;;;5.13;3.53;;;;;;;2.31;75.47;94774.44;4941310;29;20628;-88
2022/01/09 00:22:03;;;;;;;3.88;3.20;;;;;;;2.24;76.63;94758.09;4938543;29;20056;-90
2022/01/09 00:24:30;;;;;;;3.67;2.95;;;;;;;2.25;77.14;94762.25;4942509;29;20052;-90
2022/01/09 00:26:58;;;;;;;2.90;2.50;;;;;;;2.22;77.01;94747.97;4941048;29;20047;-89
2022/01/09 00:29:25;;;;;;;3.25;2.67;;;;;;;2.19;77.23;94744.97;4941158;29;20059;-85
2022/01/09 00:31:55;;;;;;;4.57;3.22;;;;;;;2.16;77.30;94750.47;4942346;29;20122;-87
2022/01/09 00:34:23;;;;;;;2.70;2.50;;;;;;;2.13;77.27;94749.03;4943246;29;20051;-86
2022/01/09 00:36:51;;;;;;;3.20;2.90;;;;;;;2.14;77.93;94739.53;4942747;29;20529;-86
2022/01/09 00:39:18;;;;;;;2.78;2.58;;;;;;;2.12;77.82;94738.91;4942935;29;20054;-86
2022/01/09 00:41:55;;;;;;;4.35;3.22;;;;;;;2.10;78.62;94735.72;4943618;29;20082;-89
2022/01/09 00:44:56;;;;;;;4.38;3.03;;;;;;;2.12;78.92;94728.63;4943108;29;20498;-86
2022/01/09 00:47:26;;;;;;;3.53;2.72;;;;;;;2.10;78.22;94733.97;4942458;29;20047;-90
2022/01/09 00:49:53;;;;;;;4.20;3.03;;;;;;;2.09;78.37;94729.00;4945795;29;20047;-90
2022/01/09 00:52:21;;;;;;;5.07;2.90;;;;;;;2.10;78.72;94715.97;4945276;29;20054;-89
2022/01/09 00:54:49;;;;;;;3.55;2.60;;;;;;;2.13;78.88;94727.66;4945382;29;20106;-91
2022/01/09 00:57:16;;;;;;;3.90;2.78;;;;;;;2.15;78.60;94723.16;4943915;29;20059;-89
2022/01/09 00:59:44;;;;;;;2.55;2.35;;;;;;;2.15;78.82;94712.88;4944134;29;20044;-89
2022/01/09 01:02:12;;;;;;;3.53;3.22;;;;;;;2.17;78.32;94698.84;4942973;29;20048;-85
2022/01/09 01:04:41;;;;;;;3.40;2.47;;;;;;;2.18;78.60;94710.72;4943253;29;20051;-90
2022/01/09 01:07:09;;;;;;;4.57;2.72;;;;;;;2.14;78.44;94703.53;4942060;29;20048;-84
2022/01/09 01:09:37;;;;;;;2.83;2.53;;;;;;;2.12;78.78;94698.59;4941830;29;20054;-90
2022/01/09 01:12:05;;;;;;;3.08;2.38;;;;;;;2.14;78.70;94701.75;4943751;29;20058;-91
2022/01/09 01:14:33;;;;;;;3.47;2.95;;;;;;;2.13;79.05;94695.03;4945733;29;20052;-87
2022/01/09 01:17:01;;;;;;;3.45;2.90;;;;;;;2.14;78.89;94693.25;4945597;29;20060;-91
2022/01/09 01:19:28;;;;;;;3.10;2.80;;;;;;;2.14;78.89;94690.66;4945685;29;20055;-90
2022/01/09 01:22:06;;;;;;;3.40;3.00;;;;;;;2.14;79.13;94696.59;4944961;29;20142;-88
2022/01/09 01:24:36;;;;;;;3.50;3.17;;;;;;;2.16;79.07;94688.72;4944582;29;20056;-88
2022/01/09 01:27:04;;;;;;;3.60;3.30;;;;;;;2.17;79.26;94687.75;4944269;29;20054;-90
2022/01/09 01:29:33;;;;;;;3.80;3.30;;;;;;;2.15;79.41;94679.44;4944683;29;20051;-89
2022/01/09 01:32:01;;;;;;;3.35;3.03;;;;;;;2.13;79.38;94676.22;4944452;29;20055;-91
2022/01/09 01:34:28;;;;;;;3.72;3.38;;;;;;;2.13;79.09;94668.50;4944489;29;20498;-91
2022/01/09 01:36:56;;;;;;;4.00;3.00;;;;;;;2.13;79.48;94669.31;4944265;29;20048;-90
2022/01/09 01:39:25;;;;;;;3.67;3.00;;;;;;;2.14;79.90;94662.38;4943538;29;20048;-90
2022/01/09 01:41:53;;;;;;;3.15;2.90;;;;;;;2.16;79.51;94673.28;4943813;29;20422;-87
2022/01/09 01:44:21;;;;;;;3.22;2.92;;;;;;;2.20;79.73;94653.97;4943558;29;20048;-90
2022/01/09 01:46:49;;;;;;;3.35;2.47;;;;;;;2.17;79.34;94642.25;4941881;29;20059;-89
2022/01/09 01:49:17;;;;;;;2.38;2.17;;;;;;;2.18;79.58;94651.56;4941674;29;20051;-90
2022/01/09 01:51:45;;;;;;;2.50;2.30;;;;;;;2.19;79.67;94632.59;4942654;29;20065;-86
2022/01/09 01:54:13;;;;;;;2.95;2.70;;;;;;;2.20;79.51;94643.66;4942298;29;20486;-84
2022/01/09 01:56:42;;;;;;;2.53;2.33;;;;;;;2.20;79.97;94647.03;4944933;29;20059;-90
2022/01/09 01:59:10;;;;;;;2.90;2.50;;;;;;;2.20;79.66;94639.31;4944338;29;20052;-89
2022/01/09 02:01:38;;;;;;;2.47;2.30;;;;;;;2.21;80.00;94627.28;4943711;29;20071;-89
2022/01/09 02:04:06;;;;;;;3.58;2.65;;;;;;;2.25;80.20;94626.75;4943869;29;20052;-90
2022/01/09 02:06:34;;;;;;;2.42;2.22;;;;;;;2.29;79.93;94640.03;4941779;29;20067;-88
2022/01/09 02:09:04;;;;;;;2.50;2.30;;;;;;;2.30;80.46;94639.06;4941103;29;20050;-90
2022/01/09 02:11:33;;;;;;;2.65;2.40;;;;;;;2.32;80.41;94647.41;4944185;29;20044;-89
2022/01/09 02:14:02;;;;;;;2.50;2.25;;;;;;;2.37;80.65;94645.09;4946264;29;20051;-90
2022/01/09 02:16:30;;;;;;;2.60;2.40;;;;;;;2.40;80.46;94639.56;4946550;29;20060;-91
2022/01/09 02:19:02;;;;;;;3.30;2.55;;;;;;;2.43;80.56;94634.06;4944580;29;20526;-89
2022/01/09 02:21:31;;;;;;;2.35;2.15;;;;;;;2.46;80.42;94633.72;4943800;29;20048;-88
2022/01/09 02:23:59;;;;;;;1.70;1.60;;;;;;;2.48;80.34;94634.31;4942871;29;20074;-91
2022/01/09 02:26:27;;;;;;;2.22;1.90;;;;;;;2.51;80.64;94625.44;4942797;29;20062;-89
2022/01/09 02:28:55;;;;;;;1.60;1.50;;;;;;;2.55;80.01;94611.25;4941960;29;20051;-89
2022/01/09 02:31:22;;;;;;;1.98;1.88;;;;;;;2.58;80.28;94620.38;4941370;29;20433;-90
2022/01/09 02:33:50;;;;;;;1.83;1.73;;;;;;;2.59;80.26;94622.78;4943050;29;20059;-90
2022/01/09 02:36:18;;;;;;;1.98;1.77;;;;;;;2.62;79.98;94624.19;4942595;29;20055;-90
2022/01/09 02:38:48;;;;;;;1.50;1.40;;;;;;;2.66;80.51;94617.69;4942692;29;20136;-86
2022/01/09 02:41:19;;;;;;;2.03;1.85;;;;;;;2.70;80.17;94608.63;4943992;29;20075;-88
2022/01/09 02:43:47;;;;;;;1.30;1.20;;;;;;;2.73;80.00;94613.41;4942316;29;20059;-86
2022/01/09 02:46:27;;;;;;;1.30;1.20;;;;;;;2.77;80.14;94611.28;4942791;29;20048;-88
2022/01/09 02:48:55;;;;;;;1.13;1.10;;;;;;;2.79;80.15;94617.84;4944171;29;20047;-89
2022/01/09 02:51:22;;;;;;;1.60;1.23;;;;;;;2.81;79.68;94621.03;4946513;29;20051;-90
2022/01/09 02:53:58;;;;;;;1.35;1.10;;;;;;;2.84;80.14;94615.53;4943833;29;20047;-90
2022/01/09 02:56:25;;;;;;;0.90;0.90;;;;;;;2.86;79.86;94613.56;4942084;29;20051;-89
2022/01/09 02:58:53;;;;;;;0.63;0.60;;;;;;;2.91;79.72;94602.72;4943224;29;20075;-88
2022/01/09 03:01:21;;;;;;;0.63;0.55;;;;;;;2.94;79.33;94622.94;4942634;29;20047;-89
2022/01/09 03:03:48;;;;;;;0.80;0.63;;;;;;;2.99;79.63;94601.78;4944866;29;20115;-90
2022/01/09 03:06:16;;;;;;;0.50;0.50;;;;;;;3.02;79.26;94606.59;4943561;29;20063;-91
2022/01/09 03:08:44;;;;;;;0.70;0.70;;;;;;;3.06;79.09;94603.47;4943727;29;20055;-89
2022/01/09 03:11:12;;;;;;;0.57;0.57;;;;;;;3.09;78.95;94602.28;4943125;29;20052;-89
2022/01/09 03:13:40;;;;;;;0.55;0.55;;;;;;;3.10;78.75;94593.56;4942275;29;20058;-90
2022/01/09 03:16:08;;;;;;;0.30;0.30;;;;;;;3.12;78.92;94599.34;4941528;29;20063;-87
2022/01/09 03:18:35;;;;;;;0.60;0.60;;;;;;;3.15;78.56;94593.84;4941345;29;20048;-87
2022/01/09 03:21:03;;;;;;;0.40;0.40;;;;;;;3.17;78.78;94593.63;4942629;29;20055;-92
2022/01/09 03:23:30;;;;;;;0.30;0.30;;;;;;;3.19;78.84;94581.34;4942114;29;20059;-89
2022/01/09 03:25:58;;;;;;;0.43;0.43;;;;;;;3.21;79.06;94590.50;4944586;29;20054;-89
2022/01/09 03:28:27;;;;;;;1.00;0.30;;;;;;;3.24;78.73;94584.19;4943992;29;20456;-90
2022/01/09 03:30:55;;;;;;;0.30;0.30;;;;;;;3.27;78.47;94587.19;4944751;29;20054;-91
2022/01/09 03:33:22;;;;;;;1.45;0.40;;;;;;;3.31;78.72;94587.63;4944259;29;20058;-86
2022/01/09 03:35:50;;;;;;;0.32;0.32;;;;;;;3.35;78.48;94594.00;4943396;29;20055;-88
2022/01/09 03:38:18;;;;;;;0.75;0.43;;;;;;;3.37;78.33;94593.78;4944364;29;20507;-87
2022/01/09 03:40:45;;;;;;;0.20;0.20;;;;;;;3.38;78.04;94587.66;4944690;29;20062;-90
2022/01/09 03:43:13;;;;;;;0.75;0.40;;;;;;;3.38;78.09;94601.34;4944626;29;20058;-89
2022/01/09 03:45:42;;;;;;;0.30;0.30;;;;;;;3.39;78.00;94602.13;4943526;29;20087;-86
2022/01/09 03:48:10;;;;;;;0.40;0.40;;;;;;;3.42;77.77;94599.19;4942989;29;20051;-89
2022/01/09 03:50:38;;;;;;;0.60;0.50;;;;;;;3.46;78.26;94593.50;4943746;29;20124;-92
2022/01/09 03:53:07;;;;;;;0.40;0.40;;;;;;;3.50;77.88;94594.72;4945071;29;20052;-86
2022/01/09 03:55:34;;;;;;;0.30;0.30;;;;;;;3.51;77.78;94596.28;4944179;29;20056;-90
2022/01/09 03:58:02;;;;;;;0.40;0.40;;;;;;;3.53;77.49;94596.09;4943650;29;20052;-84
2022/01/09 04:00:29;;;;;;;1.58;0.40;;;;;;;3.56;77.97;94595.72;4943194;29;20051;-91
2022/01/09 04:02:58;;;;;;;0.32;0.32;;;;;;;3.59;78.01;94592.78;4943140;29;20058;-89
2022/01/09 04:05:26;;;;;;;0.20;0.20;;;;;;;3.61;77.58;94590.81;4942609;29;20513;-89
2022/01/09 04:07:54;;;;;;;0.30;0.30;;;;;;;3.63;77.64;94590.63;4941250;29;20051;-89
2022/01/09 04:10:41;;;;;;;0.20;0.20;;;;;;;3.65;77.42;94586.88;4943929;29;20047;-91
2022/01/09 04:13:09;;;;;;;0.30;0.30;;;;;;;3.66;77.50;94591.03;4947328;29;20056;-89
2022/01/09 04:15:38;;;;;;;0.20;0.20;;;;;;;3.68;77.06;94599.41;4945327;29;20059;-90
2022/01/09 04:18:07;;;;;;;0.20;0.20;;;;;;;3.68;77.04;94596.81;4944722;29;20047;-90
2022/01/09 04:20:35;;;;;;;0.80;0.40;;;;;;;3.71;77.61;94599.00;4943916;29;20048;-91
2022/01/09 04:23:02;;;;;;;0.40;0.40;;;;;;;3.74;77.60;94599.63;4945163;29;20058;-90
2022/01/09 04:25:30;;;;;;;0.80;0.30;;;;;;;3.75;77.10;94594.28;4944396;29;20059;-88
2022/01/09 04:27:58;;;;;;;1.55;0.50;;;;;;;3.76;77.10;94601.03;4944158;29;20407;-89
2022/01/09 04:30:26;;;;;;;0.28;0.28;;;;;;;3.76;76.90;94601.03;4944030;29;20043;-87
2022/01/09 04:32:53;;;;;;;0.17;0.17;;;;;;;3.77;76.79;94596.69;4946053;29;20067;-90
2022/01/09 04:35:22;;;;;;;0.32;0.32;;;;;;;3.79;77.62;94610.19;4943956;29;20115;-85
2022/01/09 04:37:50;;;;;;;0.20;0.20;;;;;;;3.81;77.26;94605.63;4944586;29;20052;-87
2022/01/09 04:40:20;;;;;;;0.17;0.17;;;;;;;3.82;77.29;94617.53;4944990;29;20494;-82
2022/01/09 04:42:51;;;;;;;0.20;0.20;;;;;;;3.83;77.73;94619.13;4944100;29;20062;-86
2022/01/09 04:45:20;;;;;;;0.20;0.20;;;;;;;3.83;77.19;94619.13;4943154;29;20533;-84
2022/01/09 04:47:50;;;;;;;0.30;0.20;;;;;;;3.84;77.63;94625.88;4942608;29;20410;-84
2022/01/09 04:50:23;;;;;;;1.20;0.75;;;;;;;3.86;77.51;94629.06;4943224;29;20055;-88
2022/01/09 04:52:58;;;;;;;2.15;1.52;;;;;;;3.88;77.44;94634.84;4944517;29;20429;-81
2022/01/09 04:55:26;;;;;;;2.90;1.67;;;;;;;3.88;77.09;94637.41;4943359;29;20055;-90
2022/01/09 04:57:54;;;;;;;1.33;1.23;;;;;;;3.90;77.42;94638.03;4943261;29;20055;-90
2022/01/09 05:00:22;;;;;;;2.20;2.10;;;;;;;3.90;77.57;94635.44;4947227;29;20060;-91
2022/01/09 05:02:49;;;;;;;3.20;3.00;;;;;;;3.90;77.45;94641.41;4947829;29;20070;-91
2022/01/09 05:05:19;;;;;;;2.25;2.15;;;;;;;3.92;77.58;94644.59;4945587;29;20059;-89
2022/01/09 05:07:46;;;;;;;3.78;2.10;;;;;;;3.93;77.83;94637.63;4944074;29;20055;-89
2022/01/09 05:10:15;;;;;;;1.58;1.48;;;;;;;3.94;77.92;94641.81;4946869;29;20059;-89
2022/01/09 05:12:43;;;;;;;0.90;0.90;;;;;;;3.95;78.10;94648.56;4947715;29;20059;-90
2022/01/09 05:15:13;;;;;;;1.10;0.55;;;;;;;3.97;78.28;94654.34;4947393;29;20049;-89
2022/01/09 05:17:41;;;;;;;0.35;0.20;;;;;;;3.98;78.60;94660.28;4945935;29;20052;-89
2022/01/09 05:20:10;;;;;;;0.73;0.30;;;;;;;4.00;78.20;94677.19;4946424;29;20115;-91
2022/01/09 05:22:38;;;;;;;0.52;0.30;;;;;;;4.01;78.61;94672.81;4946793;29;20048;-91
2022/01/09 05:25:07;;;;;;;1.02;0.30;;;;;;;4.02;78.65;94684.72;4947633;29;20051;-90
2022/01/09 05:27:37;;;;;;;0.50;0.25;;;;;;;4.02;78.79;94695.84;4944456;29;20055;-91
2022/01/09 05:30:06;;;;;;;0.43;0.40;;;;;;;4.04;78.50;94698.25;4943527;29;20058;-90
2022/01/09 05:32:34;;;;;;;0.10;0.10;;;;;;;4.04;78.67;94698.25;4945216;29;20044;-88
2022/01/09 05:35:02;;;;;;;0.00;0.00;;;;;;;4.05;78.78;94716.13;4945196;29;20052;-88
2022/01/09 05:37:29;;;;;;;0.10;0.10;;;;;;;4.05;79.05;94713.53;4944232;29;20059;-88
2022/01/09 05:39:57;;;;;;;0.60;0.40;;;;;;;4.07;79.08;94721.91;4943636;29;20048;-89
2022/01/09 05:42:25;;;;;;;0.22;0.17;;;;;;;4.07;78.71;94726.25;4943431;29;20058;-90
2022/01/09 05:44:54;;;;;;;0.00;0.00;;;;;;;4.09;78.84;94737.19;4943213;29;20060;-89
2022/01/09 05:47:22;;;;;;;0.13;0.05;;;;;;;4.08;78.69;94746.69;4941255;29;20056;-87
2022/01/09 05:49:50;;;;;;;0.95;0.10;;;;;;;4.10;78.87;94764.59;4941015;29;20058;-91
2022/01/09 05:52:18;;;;;;;0.43;0.00;;;;;;;4.10;78.61;94780.84;4942612;29;20048;-91
2022/01/09 05:54:46;;;;;;;0.63;0.10;;;;;;;4.06;78.56;94782.19;4942151;29;20059;-85
2022/01/09 05:57:13;;;;;;;0.60;0.55;;;;;;;4.06;78.86;94792.53;4941371;29;20048;-85
2022/01/09 05:59:41;;;;;;;0.40;0.20;;;;;;;4.06;79.02;94800.25;4941970;29;20423;-85
2022/01/09 06:02:10;;;;;;;0.60;0.10;;;;;;;4.08;79.11;94813.00;4941361;29;20048;-86
2022/01/09 06:04:37;;;;;;;0.10;0.10;;;;;;;4.05;78.85;94814.16;4940947;29;20434;-87
2022/01/09 06:07:06;;;;;;;1.95;0.00;;;;;;;4.01;78.79;94812.94;4939349;29;20058;-82
2022/01/09 06:09:33;;;;;;;0.13;0.10;;;;;;;3.97;78.66;94832.34;4939970;29;20058;-91
2022/01/09 06:12:01;;;;;;;1.35;0.17;;;;;;;3.92;78.61;94839.84;4941497;29;20055;-83
2022/01/09 06:14:28;;;;;;;0.28;0.20;;;;;;;3.90;78.62;94841.81;4941374;29;20055;-90
2022/01/09 06:16:56;;;;;;;0.20;0.20;;;;;;;3.88;78.57;94854.09;4941305;29;20047;-85
2022/01/09 06:19:25;;;;;;;0.25;0.10;;;;;;;3.84;78.29;94858.00;4940973;29;20056;-88
2022/01/09 06:21:53;;;;;;;0.00;0.00;;;;;;;3.82;78.42;94872.84;4941110;29;20059;-89
2022/01/09 06:24:20;;;;;;;0.35;0.35;;;;;;;3.77;78.28;94880.34;4940750;29;20074;-90
2022/01/09 06:26:48;;;;;;;2.80;0.30;;;;;;;3.74;79.07;94883.28;4939161;29;20070;-89
2022/01/09 06:29:16;;;;;;;0.20;0.20;;;;;;;3.71;78.89;94887.03;4939496;29;20062;-86
2022/01/09 06:31:46;;;;;;;0.43;0.13;;;;;;;3.67;78.65;94904.66;4943998;29;20048;-91
2022/01/09 06:34:14;;;;;;;0.10;0.10;;;;;;;3.61;78.44;94905.38;4946160;29;20058;-91
2022/01/09 06:36:43;;;;;;;1.75;0.20;;;;;;;3.58;79.30;94905.72;4944062;29;20055;-91
2022/01/09 06:39:11;;;;;;;0.52;0.10;;;;;;;3.59;79.43;94914.28;4942082;29;20544;-90
2022/01/09 06:41:38;;;;;;;0.70;0.20;;;;;;;3.55;78.93;94926.72;4942134;29;20074;-89
2022/01/09 06:44:06;;;;;;;0.10;0.10;;;;;;;3.55;79.26;94931.06;4943249;29;20051;-90
2022/01/09 06:46:33;;;;;;;0.03;0.03;;;;;;;3.54;78.77;94932.81;4941477;29;20074;-87
2022/01/09 06:49:02;;;;;;;0.35;0.20;;;;;;;3.53;79.37;94936.41;4940485;29;20048;-87
2022/01/09 06:51:29;;;;;;;0.10;0.10;;;;;;;3.51;78.97;94946.09;4941920;29;20048;-87
2022/01/09 06:53:58;;;;;;;0.10;0.10;;;;;;;3.48;78.53;94949.03;4942013;29;20057;-88
2022/01/09 06:56:26;;;;;;;0.35;0.15;;;;;;;3.47;79.00;94960.31;4941553;29;20058;-88
2022/01/09 06:58:54;;;;;;;0.17;0.05;;;;;;;3.47;79.23;94955.16;4943559;29;20540;-85
2022/01/09 07:01:21;;;;;;;1.48;0.10;;;;;;;3.46;79.16;94961.28;4945423;29;20047;-87
2022/01/09 07:03:49;;;;;;;0.30;0.10;;;;;;;3.44;78.73;94973.56;4944642;29;20516;-87
2022/01/09 07:06:17;;;;;;;1.90;0.30;;;;;;;3.43;79.02;94979.69;4942958;29;20593;-87
2022/01/09 07:08:45;;;;;;;0.40;0.22;;;;;;;3.40;78.96;94985.19;4943629;29;20058;-90
2022/01/09 07:11:14;;;;;;;2.22;0.20;;;;;;;3.40;79.38;94985.19;4943910;29;20317;-89
2022/01/09 07:13:42;;;;;;;0.57;0.30;;;;;;;3.41;79.30;94994.50;4944604;29;20071;-87
2022/01/09 07:16:09;;;;;;;0.20;0.10;;;;;;;3.42;79.34;95003.88;4944443;29;20071;-85
2022/01/09 07:18:37;;;;;;;0.88;0.20;;;;;;;3.40;79.57;95005.81;4947575;29;20058;-86
2022/01/09 07:21:05;;;;;;;0.30;0.30;;;;;;;3.36;79.09;95014.88;4944868;29;20133;-89
2022/01/09 07:23:32;;;;;;;2.17;0.20;;;;;;;3.35;79.39;95019.22;4945152;29;20047;-89
2022/01/09 07:26:00;;;;;;;0.10;0.10;;;;;;;3.33;79.24;95020.41;4944871;29;20052;-87
2022/01/09 07:28:29;;;;;;;0.50;0.20;;;;;;;3.30;78.78;95036.97;4944447;29;20051;-88
2022/01/09 07:30:58;;;;;;;0.10;0.10;;;;;;;3.26;79.30;95036.53;4944815;29;20048;-88
2022/01/09 07:33:25;;;;;;;0.52;0.28;;;;;;;3.22;79.31;95045.59;4945054;29;20048;-90
2022/01/09 07:35:53;;;;;;;0.40;0.40;;;;;;;3.19;78.92;95051.09;4945858;29;20056;-90
2022/01/09 07:38:21;;;;;;;0.40;0.35;;;;;;;3.17;79.24;95055.63;4948467;29;20478;-90
2022/01/09 07:40:49;;;;;;;0.82;0.30;;;;;;;3.16;79.06;95071.25;4949686;29;20063;-91
2022/01/09 07:43:18;;;;;;;0.20;0.20;;;;;;;3.12;78.95;95064.84;4949352;29;20043;-89
2022/01/09 07:45:54;;;;;;;2.00;0.57;;;;;;;3.10;79.69;95065.00;4945690;29;20518;-85
2022/01/09 07:48:47;;;;;;;0.50;0.20;;;;;;;3.16;79.08;95074.63;5156640;27;1187910;-85
2022/01/09 07:51:14;;;;;;;0.38;0.30;;;;;;;3.19;78.85;95079.47;5174798;27;20484;-80
2022/01/09 07:53:42;;;;;;;0.17;0.17;;;;;;;3.19;79.22;95087.19;5174764;27;20057;-81
2022/01/09 07:56:10;;;;;;;0.40;0.20;;;;;;;3.18;78.64;95100.22;5174411;27;20042;-81
2022/01/09 07:58:38;;;;;;;0.63;0.32;;;;;;;3.12;78.68;95093.97;5154482;27;20042;-80
2022/01/09 08:01:06;;;;;;;0.20;0.20;;;;;;;3.09;78.98;95107.22;5155630;27;20054;-80
2022/01/09 08:03:34;;;;;;;0.10;0.10;;;;;;;3.07;78.50;95115.09;5154545;27;20051;-79
2022/01/09 08:06:03;;;;;;;0.40;0.30;;;;;;;3.04;78.86;95118.03;5152782;27;20074;-78
2022/01/09 08:08:30;;;;;;;0.25;0.13;;;;;;;3.00;79.01;95132.22;5153149;27;20046;-78
2022/01/09 08:10:58;;;;;;;0.20;0.20;;;;;;;2.97;79.32;95139.50;5154515;27;20087;-80
2022/01/09 08:13:25;;;;;;;0.20;0.20;;;;;;;2.94;78.86;95137.25;5156792;27;20050;-79
2022/01/09 08:15:53;;;;;;;0.30;0.20;;;;;;;2.94;79.01;95150.94;5155262;27;20043;-78
2022/01/09 08:18:22;;;;;;;0.20;0.10;;;;;;;2.93;79.53;95149.34;5156692;27;20070;-78
2022/01/09 08:20:49;;;;;;;0.10;0.10;;;;;;;2.93;79.34;95162.22;5153516;27;20047;-79
2022/01/09 08:23:18;;;;;;;0.22;0.22;;;;;;;2.89;78.95;95163.53;5153461;27;20050;-81
2022/01/09 08:25:46;;;;;;;0.38;0.10;;;;;;;2.86;79.06;95167.25;5153626;27;20042;-84
2022/01/09 08:28:13;;;;;;;0.47;0.30;;;;;;;2.85;79.47;95170.00;5153116;27;20039;-79
2022/01/09 08:30:41;;;;;;;0.40;0.40;;;;;;;2.84;79.03;95179.50;5153143;27;20046;-80
2022/01/09 08:33:09;;;;;;;0.30;0.30;;;;;;;2.83;79.42;95175.31;5153851;27;20420;-79
2022/01/09 08:35:36;;;;;;;0.55;0.30;;;;;;;2.83;79.22;95183.03;5154042;27;20054;-80
2022/01/09 08:38:04;;;;;;;0.95;0.60;;;;;;;2.85;79.33;95177.72;5154339;27;20050;-80
2022/01/09 08:40:32;;;;;;;0.50;0.50;;;;;;;2.84;79.70;95187.22;5154911;27;20051;-78
2022/01/09 08:43:00;;;;;;;2.00;0.77;;;;;;;2.85;80.46;95193.97;5154547;27;20062;-79
2022/01/09 08:45:28;;;;;;;0.65;0.65;;;;;;;2.87;80.08;95201.53;5151865;27;20051;-78
2022/01/09 08:47:55;;;;;;;1.75;0.50;;;;;;;2.83;79.72;95206.19;5151922;27;20397;-80
2022/01/09 08:50:24;;;;;;;0.85;0.52;;;;;;;2.83;80.06;95203.63;5151702;27;20066;-79
2022/01/09 08:52:52;;;;;;;2.72;0.75;;;;;;;2.82;79.79;95207.19;5150861;27;20504;-78
2022/01/09 08:55:24;;;;;;;0.68;0.68;;;;;;;2.84;80.03;95214.72;5152612;27;20213;-79
2022/01/09 08:57:53;;;;;;;0.75;0.75;;;;;;;2.85;80.48;95218.91;5153864;27;20043;-80
2022/01/09 09:00:20;;;;;;;1.65;0.93;;;;;;;2.89;80.63;95225.34;5138795;27;20043;-80
2022/01/09 09:02:48;;;;;;;1.63;1.23;;;;;;;2.92;80.65;95229.34;5139117;27;20054;-79
2022/01/09 09:05:16;;;;;;;2.83;0.82;;;;;;;2.94;80.18;95235.13;5139227;27;20107;-80
2022/01/09 09:07:43;;;;;;;4.70;2.13;;;;;;;2.98;80.73;95239.00;5139632;27;20442;-79
2022/01/09 09:10:11;;;;;;;41.35;20.02;;;;;;;3.00;80.53;95250.72;5140043;27;20047;-80
2022/01/09 09:12:39;;;;;;;3.80;2.08;;;;;;;3.03;80.76;95252.16;5139506;27;20047;-78
2022/01/09 09:15:09;;;;;;;5.00;1.30;;;;;;;3.03;79.92;95254.72;5140035;27;20055;-78
2022/01/09 09:17:36;;;;;;;2.50;1.35;;;;;;;3.06;80.28;95268.09;5138697;27;20446;-78
2022/01/09 09:20:05;;;;;;;3.70;1.20;;;;;;;3.08;80.20;95276.47;5139774;27;20134;-78
2022/01/09 09:22:33;;;;;;;2.80;1.10;;;;;;;3.13;80.50;95280.28;5138308;27;20432;-78
2022/01/09 09:25:00;;;;;;;4.35;1.13;;;;;;;3.12;80.43;95284.63;5138571;27;20054;-76
2022/01/09 09:27:30;;;;;;;2.17;1.00;;;;;;;3.15;79.92;95301.53;5114433;22;20059;-76
2022/01/09 09:29:59;;;;;;;1.63;0.90;;;;;;;3.16;80.02;95288.50;5075082;28;20055;-76
2022/01/09 09:32:28;;;;;;;3.03;1.08;;;;;;;3.13;80.06;95293.16;5075991;28;20059;-78
2022/01/09 09:34:55;;;;;;;4.53;1.67;;;;;;;3.12;80.14;95307.81;5078405;28;20052;-76
2022/01/09 09:37:23;;;;;;;7.07;2.55;;;;;;;3.12;79.62;95307.81;5096720;28;20052;-78
2022/01/09 09:39:51;;;;;;;5.15;1.10;;;;;;;3.13;79.99;95309.44;5103697;28;20425;-76
2022/01/09 09:42:19;;;;;;;2.40;1.20;;;;;;;3.18;80.31;95311.53;5098001;28;20052;-76
2022/01/09 09:44:46;;;;;;;6.75;1.25;;;;;;;3.19;79.85;95315.69;5095421;28;20063;-76
2022/01/09 09:47:17;;;;;;;2.75;1.05;;;;;;;3.20;79.91;95320.69;5095126;28;20055;-76
2022/01/09 09:49:47;;;;;;;4.43;1.20;;;;;;;3.23;80.09;95325.50;5095150;28;20044;-76
2022/01/09 09:52:18;;;;;;;73.88;37.42;;;;;;;3.24;79.59;95324.53;5095855;28;20055;-76
2022/01/09 09:54:48;;;;;;;11.15;5.65;;;;;;;3.27;79.24;95324.19;5094637;28;20044;-75
2022/01/09 09:57:16;;;;;;;5.88;1.90;;;;;;;3.32;79.36;95331.41;5094177;28;20056;-76
2022/01/09 09:59:44;;;;;;;4.03;1.25;;;;;;;3.33;79.23;95332.25;5105306;28;20036;-76
2022/01/09 10:02:14;;;;;;;5.35;1.40;;;;;;;3.35;79.32;95330.31;5094537;28;20089;-76
2022/01/09 10:07:34;;;;;;;6.50;1.52;;;;;;;3.41;79.29;95339.91;5130988;27;20351;-76
2022/01/09 10:10:05;;;;;;;3.55;1.08;;;;;;;3.42;78.57;95333.81;5131381;28;20404;-77
2022/01/09 10:12:33;;;;;;;4.50;1.77;;;;;;;3.42;78.47;95341.53;5129713;27;20062;-75
2022/01/09 10:15:04;;;;;;;3.88;1.23;;;;;;;3.42;78.17;95344.13;5126526;27;20058;-78
2022/01/09 10:17:31;;;;;;;3.85;1.77;;;;;;;3.45;78.39;95348.94;5121164;28;20516;-77
2022/01/09 10:20:02;;;;;;;6.38;1.50;;;;;;;3.45;78.45;95360.03;5111587;28;20076;-77
2022/01/09 10:22:37;;;;;;;5.18;1.13;;;;;;;3.47;77.88;95357.31;5128240;28;20043;-76
2022/01/09 10:25:25;;;;;;;4.32;1.80;;;;;;;3.52;78.51;95367.94;5138792;28;20050;-77
2022/01/09 10:27:58;;;;;;;3.38;1.33;;;;;;;3.54;78.10;95353.06;5117031;28;20054;-78
2022/01/09 10:30:28;;;;;;;4.63;1.73;;;;;;;3.53;78.20;95356.63;5134182;27;20047;-78
2022/01/09 10:32:57;;;;;;;6.05;1.70;;;;;;;3.54;78.08;95363.38;5134417;28;20047;-77
2022/01/09 10:35:26;;;;;;;4.97;1.15;;;;;;;3.55;76.68;95359.06;5136047;28;20055;-78
2022/01/09 10:38:06;;;;;;;4.20;1.00;;;;;;;3.54;75.40;95367.75;5138224;28;20050;-77
2022/01/09 10:40:36;;;;;;;4.93;1.30;;;;;;;3.54;76.42;95367.75;5135680;27;20062;-77
2022/01/09 10:43:06;;;;;;;4.90;1.42;;;;;;;3.54;77.24;95368.53;5138329;27;20054;-77
2022/01/09 10:45:37;;;;;;;3.28;1.25;;;;;;;3.55;76.76;95372.75;5138585;28;20052;-77
2022/01/09 10:48:08;;;;;;;7.40;0.98;;;;;;;3.57;76.81;95375.97;5137406;28;20055;-76
2022/01/09 10:50:39;;;;;;;5.28;1.27;;;;;;;3.57;75.82;95375.97;5132900;27;20100;-78
2022/01/09 10:53:21;;;;;;;7.78;1.83;;;;;;;3.60;77.33;95378.19;5132084;27;20054;-78
2022/01/09 10:56:00;;;;;;;4.63;1.00;;;;;;;3.62;75.85;95376.25;5130977;27;20077;-77
2022/01/09 10:58:29;;;;;;;4.97;1.02;;;;;;;3.64;76.44;95386.41;5129797;28;20542;-78
2022/01/09 11:01:12;;;;;;;4.82;1.25;;;;;;;3.66;75.85;95393.00;5146959;28;20052;-77
2022/01/09 11:03:42;;;;;;;5.63;1.55;;;;;;;3.67;75.52;95386.88;5149578;27;20051;-78
2022/01/09 11:06:10;;;;;;;5.55;1.38;;;;;;;3.68;75.58;95393.63;5149242;27;20070;-78
2022/01/09 11:08:40;;;;;;;4.13;1.00;;;;;;;3.69;76.70;95399.59;5149519;28;20065;-78
2022/01/09 11:11:17;;;;;;;6.30;1.73;;;;;;;3.71;75.88;95400.22;5149316;28;20044;-76
2022/01/09 11:13:46;;;;;;;4.75;1.38;;;;;;;3.74;76.08;95404.22;5148698;27;20047;-78
2022/01/09 11:16:34;;;;;;;4.70;1.05;;;;;;;3.76;75.04;95407.44;5148251;27;20039;-78
2022/01/09 11:19:05;;;;;;;3.95;1.42;;;;;;;3.76;75.75;95397.13;5129728;28;20051;-78
2022/01/09 11:21:33;;;;;;;6.28;1.20;;;;;;;3.76;74.59;95408.28;5117634;28;20043;-78
2022/01/09 11:24:32;;;;;;;5.32;1.42;;;;;;;3.76;74.04;95405.69;5117895;28;20054;-78
2022/01/09 11:27:06;;;;;;;3.67;1.23;;;;;;;3.75;75.37;95408.44;5115283;28;20044;-77
2022/01/09 11:29:41;;;;;;;3.53;1.63;;;;;;;3.76;76.48;95407.44;5116039;28;20047;-77
2022/01/09 11:32:21;;;;;;;80.60;40.50;;;;;;;3.77;76.72;95404.72;5116398;28;20515;-78
2022/01/09 11:34:56;;;;;;;22.42;9.57;;;;;;;3.77;75.21;95404.72;5116710;28;20058;-79
2022/01/09 11:37:36;;;;;;;10.73;3.20;;;;;;;3.77;74.60;95404.72;5116283;28;20131;-78
2022/01/09 11:40:20;;;;;;;3.58;1.85;;;;;;;3.77;75.63;95403.91;5116369;28;20521;-78
2022/01/09 11:43:07;;;;;;;7.53;1.50;;;;;;;3.81;76.67;95410.34;5116238;28;20445;-78
2022/01/09 11:45:42;;;;;;;5.03;1.45;;;;;;;3.80;76.39;95403.56;5122389;28;20048;-78
2022/01/09 11:48:11;;;;;;;5.20;1.23;;;;;;;3.82;76.51;95401.63;5134485;28;20074;-77
2022/01/09 11:51:12;;;;;;;7.95;1.40;;;;;;;3.82;76.71;95399.03;5134425;28;20044;-77
2022/01/09 11:53:57;;;;;;;4.75;1.73;;;;;;;3.83;77.73;95390.34;5120691;28;20047;-76
2022/01/09 11:56:55;;;;;;;4.50;1.25;;;;;;;3.83;76.95;95400.66;5134802;28;20382;-77
2022/01/09 11:59:51;;;;;;;4.75;1.52;;;;;;;3.82;76.34;95393.88;5132787;27;20130;-76